MSC Krittika — H3RV — position and weather

sailwx.info

Track history (hours):
 
Tides and Currents Weather Stations Pressure Air Temp Water Temp Dewpoint Dewpoint Depression Visibility Wind Speed Wind Dir Waves Ship Positions

MSC Krittika

Last reported at 2015-Apr-19 19:16 UTC. Time now 2015-May-04 03:56 UTC.
Position S 37°11' E 150°15'.
Warning: this ship's position is 14 days out of date.

Length 202 m; draft 8.2 m.

Type: Ship (hazmat cat A). MMSI: 354725000.

Date/timePositionNaut miles runAvg speedWind from/ knotsBaromVisibWave heightAir tempDewpointWater temp
2015-Apr-19 19:16S 37°11' E 150°15'1013.7
2015-Apr-19 18:33S 37°20' E 150°12'1513.7
2015-Apr-19 17:29S 37°34' E 150°07'1212.7
2015-Apr-19 16:33S 37°44' E 149°58'1312.5
2015-Apr-19 15:32S 37°52' E 149°46'1313.0
2015-Apr-19 14:33S 37°60' E 149°33'13513.6
2015-Apr-19 04:33S 39°08' E 147°03'1716.9
2015-Apr-19 03:33S 39°14' E 146°43'1616.1
2015-Apr-19 02:33S 39°17' E 146°22'1515.2
2015-Apr-19 01:33S 39°13' E 146°04'1515.2
2015-Apr-19 00:34S 39°06' E 145°46'100 2.6
2015-Apr-17 10:20S 38°54' E 143°38'1013.3
2015-Apr-17 09:33S 38°55' E 143°25'1313.1
2015-Apr-17 08:32S 38°55' E 143°08'1512.8
2015-Apr-17 07:23S 38°53' E 142°49'1112.9
2015-Apr-17 06:33S 38°50' E 142°36'1313.0
2015-Apr-17 05:33S 38°46' E 142°20'1313.0
2015-Apr-17 04:31S 38°42' E 142°04'1212.8
2015-Apr-17 03:33S 38°39' E 141°48'2712.7
2015-Apr-17 01:25S 38°31' E 141°15'1713.2
2015-Apr-17 00:06S 38°23' E 140°55'3313.0
2015-Apr-16 21:32S 38°06' E 140°19'1313.0
2015-Apr-16 20:33S 37°56' E 140°09'17012.7
2015-Apr-16 07:13S 35°40' E 138°03'1012.6
2015-Apr-16 06:24S 35°30' E 137°60'4711.8
2015-Apr-16 02:28S 34°47' E 138°23'5 0.4
2015-Apr-15 13:12S 34°46' E 138°30'0 0.0
2015-Apr-15 12:33S 34°46' E 138°30'4 1.7
2015-Apr-15 10:14S 34°48' E 138°25'6 8.5
2015-Apr-15 09:33S 34°50' E 138°19'5 5.5
2015-Apr-15 08:34S 34°55' E 138°15'7 7.3
2015-Apr-15 07:34S 35°00' E 138°10'10 9.5
2015-Apr-15 06:33S 35°09' E 138°04'1313.1
2015-Apr-15 05:33S 35°17' E 137°51'  
Track history (hours):
 
Tides and Currents Weather Stations Pressure Air Temp Water Temp Dewpoint Dewpoint Depression Visibility Wind Speed Wind Dir Waves Ship Positions

MSC Krittika

Last reported at 2015-Apr-19 19:16 UTC. Time now 2015-May-04 03:56 UTC.
Position S 37°11' E 150°15'.
Warning: this ship's position is 14 days out of date.

Length 202 m; draft 8.2 m.

Type: Ship (hazmat cat A). MMSI: 354725000.

Date/timePositionNaut miles runAvg speedWind from/ knotsBaromVisibWave heightAir tempDewpointWater temp
2015-Apr-19 19:16S 37°11' E 150°15'1013.7
2015-Apr-19 18:33S 37°20' E 150°12'1513.7
2015-Apr-19 17:29S 37°34' E 150°07'1212.7
2015-Apr-19 16:33S 37°44' E 149°58'1312.5
2015-Apr-19 15:32S 37°52' E 149°46'1313.0
2015-Apr-19 14:33S 37°60' E 149°33'13513.6
2015-Apr-19 04:33S 39°08' E 147°03'1716.9
2015-Apr-19 03:33S 39°14' E 146°43'1616.1
2015-Apr-19 02:33S 39°17' E 146°22'1515.2
2015-Apr-19 01:33S 39°13' E 146°04'1515.2
2015-Apr-19 00:34S 39°06' E 145°46'100 2.6
2015-Apr-17 10:20S 38°54' E 143°38'1013.3
2015-Apr-17 09:33S 38°55' E 143°25'1313.1
2015-Apr-17 08:32S 38°55' E 143°08'1512.8
2015-Apr-17 07:23S 38°53' E 142°49'1112.9
2015-Apr-17 06:33S 38°50' E 142°36'1313.0
2015-Apr-17 05:33S 38°46' E 142°20'1313.0
2015-Apr-17 04:31S 38°42' E 142°04'1212.8
2015-Apr-17 03:33S 38°39' E 141°48'2712.7
2015-Apr-17 01:25S 38°31' E 141°15'1713.2
2015-Apr-17 00:06S 38°23' E 140°55'3313.0
2015-Apr-16 21:32S 38°06' E 140°19'1313.0
2015-Apr-16 20:33S 37°56' E 140°09'17012.7
2015-Apr-16 07:13S 35°40' E 138°03'1012.6
2015-Apr-16 06:24S 35°30' E 137°60'4711.8
2015-Apr-16 02:28S 34°47' E 138°23'5 0.4
2015-Apr-15 13:12S 34°46' E 138°30'0 0.0
2015-Apr-15 12:33S 34°46' E 138°30'4 1.7
2015-Apr-15 10:14S 34°48' E 138°25'6 8.5
2015-Apr-15 09:33S 34°50' E 138°19'5 5.5
2015-Apr-15 08:34S 34°55' E 138°15'7 7.3
2015-Apr-15 07:34S 35°00' E 138°10'10 9.5
2015-Apr-15 06:33S 35°09' E 138°04'1313.1
2015-Apr-15 05:33S 35°17' E 137°51'  

Dump ship's entire track history